sensor_id;sensor_type;location;lat;lon;timestamp;pressure;altitude;pressure_sealevel;temperature;humidity
36304;BME280;22335;49.800;8.596;2023-08-08T00:03:34;100563.63;;;20.33;51.24
36304;BME280;22335;49.800;8.596;2023-08-08T00:10:18;100567.00;;;20.38;51.47
36304;BME280;22335;49.800;8.596;2023-08-08T00:17:03;100549.97;;;20.40;51.44
36304;BME280;22335;49.800;8.596;2023-08-08T00:23:47;100556.59;;;20.35;51.71
36304;BME280;22335;49.800;8.596;2023-08-08T00:30:30;100539.13;;;20.22;51.79
36304;BME280;22335;49.800;8.596;2023-08-08T00:37:15;100535.06;;;20.20;51.78
36304;BME280;22335;49.800;8.596;2023-08-08T00:43:59;100545.91;;;20.13;51.81
36304;BME280;22335;49.800;8.596;2023-08-08T00:50:44;100538.06;;;20.02;51.95
36304;BME280;22335;49.800;8.596;2023-08-08T00:57:28;100387.56;;;19.11;52.11
36304;BME280;22335;49.800;8.596;2023-08-08T01:39:08;100530.19;;;19.47;52.70
36304;BME280;22335;49.800;8.596;2023-08-08T01:45:56;100531.59;;;19.53;52.44
36304;BME280;22335;49.800;8.596;2023-08-08T01:52:40;100536.44;;;19.44;52.72
36304;BME280;22335;49.800;8.596;2023-08-08T01:59:25;100523.94;;;19.38;52.95
36304;BME280;22335;49.800;8.596;2023-08-08T02:06:08;100519.66;;;19.40;52.96
36304;BME280;22335;49.800;8.596;2023-08-08T02:12:52;100451.34;;;18.90;53.08
36304;BME280;22335;49.800;8.596;2023-08-08T02:19:37;100527.63;;;19.29;52.87
36304;BME280;22335;49.800;8.596;2023-08-08T02:26:20;100524.25;;;19.24;53.16
36304;BME280;22335;49.800;8.596;2023-08-08T02:33:04;100512.63;;;19.09;53.46
36304;BME280;22335;49.800;8.596;2023-08-08T02:39:49;100505.63;;;18.91;53.78
36304;BME280;22335;49.800;8.596;2023-08-08T05:34:56;100516.06;;;14.63;60.84
36304;BME280;22335;49.800;8.596;2023-08-08T05:41:42;100513.50;;;15.65;61.21
36304;BME280;22335;49.800;8.596;2023-08-08T05:48:26;100509.91;;;16.45;60.99
36304;BME280;22335;49.800;8.596;2023-08-08T05:55:11;100496.44;;;16.87;61.07
36304;BME280;22335;49.800;8.596;2023-08-08T06:01:54;100489.25;;;17.12;60.97
36304;BME280;22335;49.800;8.596;2023-08-08T06:08:38;100508.03;;;17.53;60.89
36304;BME280;22335;49.800;8.596;2023-08-08T06:15:23;100511.09;;;17.78;60.82
36304;BME280;22335;49.800;8.596;2023-08-08T06:22:06;100515.78;;;18.15;60.76
36304;BME280;22335;49.800;8.596;2023-08-08T06:28:50;100522.44;;;18.44;60.15
36304;BME280;22335;49.800;8.596;2023-08-08T06:35:35;100510.75;;;18.59;60.58
36304;BME280;22335;49.800;8.596;2023-08-08T06:42:18;100522.06;;;18.75;59.91
36304;BME280;22335;49.800;8.596;2023-08-08T06:49:09;100519.00;;;18.89;59.78
36304;BME280;22335;49.800;8.596;2023-08-08T06:55:54;100504.56;;;19.17;59.62
36304;BME280;22335;49.800;8.596;2023-08-08T07:02:37;100514.13;;;19.40;59.25
36304;BME280;22335;49.800;8.596;2023-08-08T07:09:21;100500.59;;;19.39;58.83
36304;BME280;22335;49.800;8.596;2023-08-08T07:16:06;100496.81;;;19.55;59.05
36304;BME280;22335;49.800;8.596;2023-08-08T07:22:49;100509.47;;;19.65;58.59
36304;BME280;22335;49.800;8.596;2023-08-08T07:29:33;100502.06;;;19.81;58.42
36304;BME280;22335;49.800;8.596;2023-08-08T07:36:18;100489.94;;;19.98;58.35
36304;BME280;22335;49.800;8.596;2023-08-08T07:43:02;100495.72;;;20.18;57.90
36304;BME280;22335;49.800;8.596;2023-08-08T07:49:46;100496.88;;;20.17;57.60
36304;BME280;22335;49.800;8.596;2023-08-08T07:56:30;100489.44;;;20.33;57.21
36304;BME280;22335;49.800;8.596;2023-08-08T08:03:14;100485.56;;;20.62;56.41
36304;BME280;22335;49.800;8.596;2023-08-08T08:09:58;100482.28;;;20.85;55.84
36304;BME280;22335;49.800;8.596;2023-08-08T08:16:42;100464.50;;;21.17;54.90
36304;BME280;22335;49.800;8.596;2023-08-08T08:23:26;100476.59;;;21.53;54.29
36304;BME280;22335;49.800;8.596;2023-08-08T08:30:11;100417.22;;;21.33;53.94
36304;BME280;22335;49.800;8.596;2023-08-08T08:36:56;100459.72;;;21.78;53.38
36304;BME280;22335;49.800;8.596;2023-08-08T08:43:40;100482.50;;;21.99;52.99
36304;BME280;22335;49.800;8.596;2023-08-08T08:50:26;100469.53;;;22.07;51.73
36304;BME280;22335;49.800;8.596;2023-08-08T08:57:12;100474.69;;;22.21;51.17
36304;BME280;22335;49.800;8.596;2023-08-08T09:03:56;100469.41;;;22.35;51.45
36304;BME280;22335;49.800;8.596;2023-08-08T09:10:40;100470.31;;;22.39;50.96
36304;BME280;22335;49.800;8.596;2023-08-08T09:17:26;100437.03;;;22.46;50.52
36304;BME280;22335;49.800;8.596;2023-08-08T09:24:19;100451.47;;;22.71;50.74
36304;BME280;22335;49.800;8.596;2023-08-08T09:31:03;100460.78;;;22.79;50.29
36304;BME280;22335;49.800;8.596;2023-08-08T09:37:47;100444.56;;;23.04;48.99
36304;BME280;22335;49.800;8.596;2023-08-08T09:44:31;100447.00;;;23.29;47.91
36304;BME280;22335;49.800;8.596;2023-08-08T09:51:16;100453.59;;;23.63;48.55
36304;BME280;22335;49.800;8.596;2023-08-08T09:58:02;100432.66;;;23.73;48.40
36304;BME280;22335;49.800;8.596;2023-08-08T10:04:46;100436.88;;;23.89;47.15
36304;BME280;22335;49.800;8.596;2023-08-08T10:11:30;100402.38;;;23.78;46.25
36304;BME280;22335;49.800;8.596;2023-08-08T10:18:16;100429.59;;;24.08;45.05
36304;BME280;22335;49.800;8.596;2023-08-08T10:25:03;100428.59;;;24.23;44.44
36304;BME280;22335;49.800;8.596;2023-08-08T10:31:51;100425.56;;;24.35;44.68
36304;BME280;22335;49.800;8.596;2023-08-08T10:38:41;100391.59;;;24.33;44.07
36304;BME280;22335;49.800;8.596;2023-08-08T10:45:29;100419.47;;;24.56;44.48
36304;BME280;22335;49.800;8.596;2023-08-08T10:52:14;100411.91;;;24.57;42.50
36304;BME280;22335;49.800;8.596;2023-08-08T10:58:59;100406.91;;;24.43;41.89
36304;BME280;22335;49.800;8.596;2023-08-08T11:05:46;100407.88;;;24.54;42.76
36304;BME280;22335;49.800;8.596;2023-08-08T11:12:31;100419.38;;;24.83;42.58
36304;BME280;22335;49.800;8.596;2023-08-08T11:19:16;100408.22;;;24.87;41.63
36304;BME280;22335;49.800;8.596;2023-08-08T11:26:01;100409.09;;;24.91;41.69
36304;BME280;22335;49.800;8.596;2023-08-08T11:32:49;100403.53;;;24.94;41.69
36304;BME280;22335;49.800;8.596;2023-08-08T11:39:37;100402.28;;;24.92;41.17
36304;BME280;22335;49.800;8.596;2023-08-08T11:46:23;100394.78;;;24.99;40.82
36304;BME280;22335;49.800;8.596;2023-08-08T11:53:07;100384.19;;;25.16;41.03
36304;BME280;22335;49.800;8.596;2023-08-08T11:59:54;100395.41;;;25.19;40.14
36304;BME280;22335;49.800;8.596;2023-08-08T12:06:38;100389.47;;;25.24;40.56
36304;BME280;22335;49.800;8.596;2023-08-08T12:13:22;100395.09;;;25.28;40.72
36304;BME280;22335;49.800;8.596;2023-08-08T12:20:09;100398.25;;;25.26;40.33
36304;BME280;22335;49.800;8.596;2023-08-08T12:26:52;100385.91;;;25.31;41.42
36304;BME280;22335;49.800;8.596;2023-08-08T12:33:36;100361.22;;;25.44;40.15
36304;BME280;22335;49.800;8.596;2023-08-08T12:40:21;100381.75;;;25.62;39.45
36304;BME280;22335;49.800;8.596;2023-08-08T12:47:06;100387.03;;;25.71;38.93
36304;BME280;22335;49.800;8.596;2023-08-08T12:53:50;100382.59;;;25.70;39.13
36304;BME280;22335;49.800;8.596;2023-08-08T13:00:35;100374.22;;;25.73;37.99
36304;BME280;22335;49.800;8.596;2023-08-08T13:07:18;100377.78;;;25.67;38.03
36304;BME280;22335;49.800;8.596;2023-08-08T13:14:02;100368.56;;;25.66;38.02
36304;BME280;22335;49.800;8.596;2023-08-08T13:20:47;100357.34;;;25.63;37.09
36304;BME280;22335;49.800;8.596;2023-08-08T13:27:31;100359.19;;;25.41;36.90
36304;BME280;22335;49.800;8.596;2023-08-08T13:34:15;100357.47;;;25.25;37.21
36304;BME280;22335;49.800;8.596;2023-08-08T13:40:59;100351.34;;;25.13;36.96
36304;BME280;22335;49.800;8.596;2023-08-08T13:47:43;100368.97;;;25.17;37.26
36304;BME280;22335;49.800;8.596;2023-08-08T13:54:26;100360.59;;;25.17;37.38
36304;BME280;22335;49.800;8.596;2023-08-08T14:01:11;100354.09;;;25.09;37.03
36304;BME280;22335;49.800;8.596;2023-08-08T14:07:56;100360.59;;;25.17;37.32
36304;BME280;22335;49.800;8.596;2023-08-08T14:14:39;100346.16;;;25.15;37.93
36304;BME280;22335;49.800;8.596;2023-08-08T14:21:24;100328.97;;;25.13;37.80
36304;BME280;22335;49.800;8.596;2023-08-08T14:28:07;100337.84;;;25.22;37.92
36304;BME280;22335;49.800;8.596;2023-08-08T14:34:51;100342.66;;;25.21;37.26
36304;BME280;22335;49.800;8.596;2023-08-08T14:41:36;100349.25;;;25.02;37.39
36304;BME280;22335;49.800;8.596;2023-08-08T14:48:20;100353.09;;;24.87;37.82
36304;BME280;22335;49.800;8.596;2023-08-08T14:55:04;100318.59;;;24.38;37.77
36304;BME280;22335;49.800;8.596;2023-08-08T15:01:49;100363.41;;;24.46;38.53
36304;BME280;22335;49.800;8.596;2023-08-08T15:08:33;100386.03;;;24.37;38.39
36304;BME280;22335;49.800;8.596;2023-08-08T15:15:16;100384.75;;;24.31;39.08
36304;BME280;22335;49.800;8.596;2023-08-08T15:22:04;100378.56;;;24.14;39.42
36304;BME280;22335;49.800;8.596;2023-08-08T15:28:47;100386.16;;;24.14;39.84
36304;BME280;22335;49.800;8.596;2023-08-08T15:35:31;100381.88;;;24.24;39.56
36304;BME280;22335;49.800;8.596;2023-08-08T15:42:16;100379.59;;;24.33;40.25
36304;BME280;22335;49.800;8.596;2023-08-08T15:48:59;100380.97;;;24.43;39.55
36304;BME280;22335;49.800;8.596;2023-08-08T15:55:42;100384.00;;;24.34;39.83
36304;BME280;22335;49.800;8.596;2023-08-08T16:02:27;100369.69;;;24.39;40.47
36304;BME280;22335;49.800;8.596;2023-08-08T16:09:11;100382.47;;;24.40;40.39
36304;BME280;22335;49.800;8.596;2023-08-08T16:15:55;100381.69;;;24.39;40.25
36304;BME280;22335;49.800;8.596;2023-08-08T16:22:39;100381.22;;;24.34;40.53
36304;BME280;22335;49.800;8.596;2023-08-08T16:29:23;100385.13;;;24.26;40.53
36304;BME280;22335;49.800;8.596;2023-08-08T16:36:06;100392.63;;;24.22;40.29
36304;BME280;22335;49.800;8.596;2023-08-08T16:42:51;100380.28;;;24.23;40.99
36304;BME280;22335;49.800;8.596;2023-08-08T16:49:34;100384.31;;;24.25;40.83
36304;BME280;22335;49.800;8.596;2023-08-08T16:56:18;100321.53;;;23.85;41.42
36304;BME280;22335;49.800;8.596;2023-08-08T17:03:04;100379.53;;;24.26;41.21
36304;BME280;22335;49.800;8.596;2023-08-08T17:09:48;100379.13;;;24.27;41.81
36304;BME280;22335;49.800;8.596;2023-08-08T17:16:31;100374.84;;;24.37;42.05
36304;BME280;22335;49.800;8.596;2023-08-08T17:23:16;100366.06;;;24.35;42.06
36304;BME280;22335;49.800;8.596;2023-08-08T17:29:59;100380.03;;;24.35;42.14
36304;BME280;22335;49.800;8.596;2023-08-08T17:36:43;100378.84;;;24.36;42.09
36304;BME280;22335;49.800;8.596;2023-08-08T17:43:27;100305.28;;;23.95;42.88
36304;BME280;22335;49.800;8.596;2023-08-08T17:50:11;100389.38;;;24.46;43.38
36304;BME280;22335;49.800;8.596;2023-08-08T17:56:54;100391.84;;;24.51;43.04
36304;BME280;22335;49.800;8.596;2023-08-08T18:03:39;100389.56;;;24.60;43.13
36304;BME280;22335;49.800;8.596;2023-08-08T18:10:23;100397.53;;;24.58;43.41
36304;BME280;22335;49.800;8.596;2023-08-08T18:17:07;100399.50;;;24.58;43.46
36304;BME280;22335;49.800;8.596;2023-08-08T18:23:52;100301.09;;;24.11;43.59
36304;BME280;22335;49.800;8.596;2023-08-08T18:30:36;100307.59;;;24.19;44.13
36304;BME280;22335;49.800;8.596;2023-08-08T18:37:19;100378.38;;;24.60;44.24
36304;BME280;22335;49.800;8.596;2023-08-08T18:44:05;100370.75;;;24.57;44.19
36304;BME280;22335;49.800;8.596;2023-08-08T18:50:49;100372.31;;;24.55;44.65
36304;BME280;22335;49.800;8.596;2023-08-08T18:57:32;100374.31;;;24.54;44.68
36304;BME280;22335;49.800;8.596;2023-08-08T19:04:18;100365.44;;;24.49;44.79
36304;BME280;22335;49.800;8.596;2023-08-08T19:11:02;100388.69;;;24.53;44.72
36304;BME280;22335;49.800;8.596;2023-08-08T19:17:46;100381.06;;;24.50;44.69
36304;BME280;22335;49.800;8.596;2023-08-08T19:24:37;100366.19;;;24.42;44.98
36304;BME280;22335;49.800;8.596;2023-08-08T19:31:20;100387.75;;;24.42;45.32
36304;BME280;22335;49.800;8.596;2023-08-08T19:38:04;100388.03;;;24.36;45.61
36304;BME280;22335;49.800;8.596;2023-08-08T19:44:49;100382.69;;;24.24;45.79
36304;BME280;22335;49.800;8.596;2023-08-08T19:51:32;100403.75;;;24.18;45.96
36304;BME280;22335;49.800;8.596;2023-08-08T19:58:15;100393.75;;;24.13;45.99
36304;BME280;22335;49.800;8.596;2023-08-08T20:05:00;100393.22;;;24.04;45.62
36304;BME280;22335;49.800;8.596;2023-08-08T20:11:44;100395.44;;;23.91;45.30
36304;BME280;22335;49.800;8.596;2023-08-08T20:18:27;100390.16;;;23.86;45.33
36304;BME280;22335;49.800;8.596;2023-08-08T20:25:12;100379.59;;;23.73;45.41
36304;BME280;22335;49.800;8.596;2023-08-08T20:31:57;100396.53;;;23.60;45.41
36304;BME280;22335;49.800;8.596;2023-08-08T20:38:41;100384.31;;;23.45;45.65
36304;BME280;22335;49.800;8.596;2023-08-08T20:45:26;100382.72;;;23.21;46.15
36304;BME280;22335;49.800;8.596;2023-08-08T20:52:09;100398.38;;;23.07;46.75
36304;BME280;22335;49.800;8.596;2023-08-08T20:58:53;100349.41;;;22.67;47.03
36304;BME280;22335;49.800;8.596;2023-08-08T21:05:38;100404.44;;;22.89;47.78
36304;BME280;22335;49.800;8.596;2023-08-08T21:12:21;100412.22;;;22.80;48.50
36304;BME280;22335;49.800;8.596;2023-08-08T21:19:05;100411.78;;;22.59;49.26
36304;BME280;22335;49.800;8.596;2023-08-08T21:25:50;100395.44;;;22.38;50.21
36304;BME280;22335;49.800;8.596;2023-08-08T21:32:34;100394.06;;;22.12;50.90
36304;BME280;22335;49.800;8.596;2023-08-08T21:39:17;100419.47;;;22.10;51.62
36304;BME280;22335;49.800;8.596;2023-08-08T21:46:02;100403.06;;;22.05;52.49
36304;BME280;22335;49.800;8.596;2023-08-08T21:52:46;100403.06;;;22.05;52.92
36304;BME280;22335;49.800;8.596;2023-08-08T21:59:30;100373.44;;;21.97;53.49
36304;BME280;22335;49.800;8.596;2023-08-08T22:06:15;100324.69;;;21.87;54.12
36304;BME280;22335;49.800;8.596;2023-08-08T22:12:59;100392.94;;;22.32;54.12
36304;BME280;22335;49.800;8.596;2023-08-08T22:19:43;100372.63;;;22.32;54.59
36304;BME280;22335;49.800;8.596;2023-08-08T22:26:28;100369.09;;;22.35;54.82
36304;BME280;22335;49.800;8.596;2023-08-08T22:33:11;100376.72;;;22.38;54.90
36304;BME280;22335;49.800;8.596;2023-08-08T22:39:55;100367.56;;;22.38;55.34
36304;BME280;22335;49.800;8.596;2023-08-08T22:46:40;100309.06;;;22.18;55.61
36304;BME280;22335;49.800;8.596;2023-08-08T22:53:23;100351.28;;;22.40;55.85
36304;BME280;22335;49.800;8.596;2023-08-08T23:00:07;100344.53;;;22.41;55.99
36304;BME280;22335;49.800;8.596;2023-08-08T23:06:55;100331.63;;;22.32;56.38
36304;BME280;22335;49.800;8.596;2023-08-08T23:13:38;100324.38;;;22.28;56.70
36304;BME280;22335;49.800;8.596;2023-08-08T23:20:22;100311.84;;;22.18;57.08
36304;BME280;22335;49.800;8.596;2023-08-08T23:27:07;100289.22;;;22.04;57.23
36304;BME280;22335;49.800;8.596;2023-08-08T23:33:51;100281.03;;;21.92;57.54
36304;BME280;22335;49.800;8.596;2023-08-08T23:40:34;100276.50;;;21.83;57.96
36304;BME280;22335;49.800;8.596;2023-08-08T23:47:19;100254.94;;;21.80;58.08
36304;BME280;22335;49.800;8.596;2023-08-08T23:54:04;100241.03;;;21.80;58.21
